Time;durP1;ratioP1;P1;durP2;ratioP2;P2;SDS_P1;SDS_P2;PMS_P1;PMS_P2;Temp;Humidity;BMP_temperature;BMP_pressure;BME280_temperature;BME280_humidity;BME280_pressure;Samples;Min_cycle;Max_cycle;Signal;HPM_P1;HPM_P2
2023/12/05 00:00:45;;;;;;;20.83;18.63;;;;;;;3.62;84.51;99744.47;5094204;28;20459;-64
2023/12/05 00:03:11;;;;;;;22.27;19.88;;;;;;;3.64;84.42;99742.31;5082276;28;20450;-64
2023/12/05 00:05:36;;;;;;;21.60;19.38;;;;;;;3.65;84.06;99739.31;5084160;28;20032;-64
2023/12/05 00:08:05;;;;;;;22.48;20.20;;;;;;;3.65;84.60;99738.47;5090142;28;20035;-63
2023/12/05 00:10:30;;;;;;;21.88;19.60;;;;;;;3.64;84.35;99742.31;5092851;28;20093;-65
2023/12/05 00:12:56;;;;;;;21.98;19.77;;;;;;;3.67;84.42;99736.34;5091070;28;20016;-64
2023/12/05 00:15:21;;;;;;;21.73;19.42;;;;;;;3.68;84.26;99741.59;5081010;28;20100;-64
2023/12/05 00:17:46;;;;;;;21.83;19.63;;;;;;;3.69;84.42;99740.53;5077625;28;20064;-64
2023/12/05 00:20:12;;;;;;;21.92;19.63;;;;;;;3.67;84.08;99739.09;5081651;28;20028;-63
2023/12/05 00:22:40;;;;;;;23.08;20.60;;;;;;;3.68;84.33;99735.28;5074268;28;20513;-63
2023/12/05 00:25:07;;;;;;;22.33;19.92;;;;;;;3.68;84.38;99733.38;5082055;28;20035;-64
2023/12/05 00:27:32;;;;;;;21.70;19.38;;;;;;;3.68;84.69;99722.38;5093706;28;20036;-63
2023/12/05 00:29:57;;;;;;;23.05;20.58;;;;;;;3.65;84.49;99730.25;5086809;28;20525;-63
2023/12/05 00:32:23;;;;;;;22.90;20.38;;;;;;;3.67;84.65;99730.88;5079966;28;20045;-63
2023/12/05 00:34:48;;;;;;;23.13;20.50;;;;;;;3.66;84.53;99727.28;5073993;28;20472;-64
2023/12/05 00:37:13;;;;;;;22.52;19.98;;;;;;;3.69;84.53;99728.72;5076140;28;20024;-64
2023/12/05 00:39:39;;;;;;;22.98;20.55;;;;;;;3.70;84.91;99722.16;5089305;28;20089;-64
2023/12/05 00:42:05;;;;;;;23.77;21.27;;;;;;;3.71;84.45;99729.31;5090710;28;21371;-66
2023/12/05 00:44:30;;;;;;;23.20;20.70;;;;;;;3.71;84.87;99723.00;5092509;28;20028;-65
2023/12/05 00:46:56;;;;;;;24.15;21.48;;;;;;;3.72;84.82;99717.25;5084505;28;20059;-64
2023/12/05 00:49:21;;;;;;;23.42;20.70;;;;;;;3.72;85.12;99719.19;5093139;28;20071;-65
2023/12/05 00:51:46;;;;;;;23.10;20.63;;;;;;;3.73;84.52;99723.59;5091758;28;20046;-64
2023/12/05 00:54:12;;;;;;;23.40;20.95;;;;;;;3.74;84.44;99719.78;5091159;28;20471;-64
2023/12/05 00:56:37;;;;;;;25.42;21.48;;;;;;;3.74;85.09;99725.28;5087570;28;20024;-64
2023/12/05 00:59:03;;;;;;;23.50;21.02;;;;;;;3.72;84.76;99719.19;5092968;28;20039;-64
2023/12/05 01:01:28;;;;;;;24.52;21.92;;;;;;;3.74;84.43;99725.28;5091681;28;20475;-64
2023/12/05 01:03:56;;;;;;;22.65;20.25;;;;;;;3.73;84.47;99723.59;5093877;28;20054;-64
2023/12/05 01:06:22;;;;;;;24.33;21.17;;;;;;;3.75;84.93;99722.28;5076427;28;20032;-64
2023/12/05 01:08:47;;;;;;;23.42;20.92;;;;;;;3.77;84.86;99720.13;5073180;28;20051;-64
2023/12/05 01:11:12;;;;;;;22.70;20.30;;;;;;;3.78;84.89;99721.81;5080049;28;20361;-64
2023/12/05 01:13:45;;;;;;;22.25;19.90;;;;;;;3.79;85.06;99717.16;5081369;28;20024;-64
2023/12/05 01:16:10;;;;;;;24.50;22.00;;;;;;;3.80;84.49;99716.09;5077391;28;20059;-64
2023/12/05 01:18:37;;;;;;;23.67;21.20;;;;;;;3.80;85.13;99718.84;5087721;28;20446;-65
2023/12/05 01:21:02;;;;;;;23.63;20.95;;;;;;;3.82;84.99;99719.44;5085764;28;20107;-64
2023/12/05 01:23:27;;;;;;;24.00;21.38;;;;;;;3.84;84.98;99711.78;5073067;28;20531;-64
2023/12/05 01:25:53;;;;;;;22.77;20.38;;;;;;;3.82;84.97;99708.47;5077487;28;20067;-65
2023/12/05 01:28:18;;;;;;;23.42;21.02;;;;;;;3.85;85.15;99705.22;5085481;28;20086;-65
2023/12/05 01:30:44;;;;;;;24.20;21.27;;;;;;;3.84;84.96;99709.06;5077010;28;20081;-64
2023/12/05 01:33:09;;;;;;;24.10;21.52;;;;;;;3.86;84.95;99713.25;5092191;28;20068;-64
2023/12/05 01:35:34;;;;;;;22.92;20.52;;;;;;;3.87;85.12;99716.81;5084782;28;20446;-64
2023/12/05 01:38:00;;;;;;;22.80;20.45;;;;;;;3.87;85.15;99709.41;5080228;28;20047;-65
2023/12/05 01:40:26;;;;;;;23.45;20.92;;;;;;;3.86;84.86;99704.16;5078664;28;20438;-64
2023/12/05 01:42:51;;;;;;;23.88;21.38;;;;;;;3.88;85.20;99713.00;5090274;28;20036;-65
2023/12/05 01:45:19;;;;;;;23.92;21.40;;;;;;;3.90;85.09;99713.59;5076148;28;20858;-64
2023/12/05 01:47:45;;;;;;;23.30;20.85;;;;;;;3.89;85.08;99711.91;5079218;28;20039;-65
2023/12/05 01:50:15;;;;;;;24.42;21.85;;;;;;;3.90;84.82;99716.34;5073474;28;20107;-64
2023/12/05 01:52:46;;;;;;;24.58;21.90;;;;;;;3.89;85.10;99715.50;5072314;28;20550;-65
2023/12/05 01:55:12;;;;;;;24.02;21.52;;;;;;;3.91;84.78;99715.25;5079871;28;20058;-65
2023/12/05 01:57:37;;;;;;;24.30;21.00;;;;;;;3.90;85.27;99714.44;5087783;28;20380;-65
2023/12/05 02:00:06;;;;;;;23.52;20.60;;;;;;;3.92;85.11;99722.41;5075183;28;20114;-65
2023/12/05 02:02:31;;;;;;;24.13;21.58;;;;;;;3.93;85.06;99716.72;5084467;28;20041;-65
2023/12/05 02:04:57;;;;;;;24.58;21.42;;;;;;;3.94;84.99;99725.78;5072129;28;20460;-65
2023/12/05 02:07:23;;;;;;;24.23;21.65;;;;;;;3.94;84.83;99723.88;5081918;28;20023;-65
2023/12/05 02:09:48;;;;;;;24.50;21.90;;;;;;;3.96;85.27;99722.78;5072623;28;20034;-65
2023/12/05 02:12:14;;;;;;;24.33;21.35;;;;;;;3.97;84.80;99727.19;5081257;28;20032;-65
2023/12/05 02:14:39;;;;;;;25.05;22.35;;;;;;;3.97;85.53;99725.31;5087201;28;20063;-65
2023/12/05 02:17:19;;;;;;;25.45;22.85;;;;;;;3.96;85.11;99723.63;5071851;28;20103;-65
2023/12/05 02:20:01;;;;;;;24.65;21.98;;;;;;;3.98;85.28;99724.22;5074334;28;20036;-65
2023/12/05 02:22:48;;;;;;;26.38;23.05;;;;;;;3.99;85.10;99716.81;5091361;28;20047;-65
2023/12/05 02:25:40;;;;;;;26.92;24.02;;;;;;;4.01;85.16;99725.66;5084759;28;20074;-65
2023/12/05 02:28:09;;;;;;;25.83;23.17;;;;;;;4.02;84.79;99719.09;5075417;28;20032;-65
2023/12/05 02:30:34;;;;;;;25.67;22.85;;;;;;;4.00;85.33;99718.50;5079840;28;20380;-64
2023/12/05 02:33:00;;;;;;;26.60;23.58;;;;;;;4.01;85.27;99728.38;5089694;28;20044;-65
2023/12/05 02:35:25;;;;;;;26.90;23.85;;;;;;;4.02;85.79;99721.84;5081504;28;20032;-65
2023/12/05 02:38:09;;;;;;;26.95;24.13;;;;;;;4.03;85.29;99721.59;5074119;28;20074;-65
2023/12/05 02:41:06;;;;;;;25.92;23.13;;;;;;;4.03;85.34;99720.75;5071106;28;20541;-62
2023/12/05 02:43:38;;;;;;;26.95;24.05;;;;;;;4.03;85.22;99718.84;5079679;28;20038;-63
2023/12/05 02:46:07;;;;;;;26.80;23.85;;;;;;;4.04;85.40;99716.94;5081477;28;20158;-62
2023/12/05 02:48:33;;;;;;;27.63;24.45;;;;;;;4.06;85.47;99714.81;5074269;28;20344;-62
2023/12/05 02:50:59;;;;;;;27.48;24.02;;;;;;;4.06;85.43;99712.88;5085995;28;20020;-63
2023/12/05 02:53:24;;;;;;;28.20;25.20;;;;;;;4.06;85.19;99712.88;5081305;28;20085;-63
2023/12/05 02:55:49;;;;;;;28.42;25.08;;;;;;;4.07;85.33;99713.72;5071293;28;20119;-62
2023/12/05 02:58:15;;;;;;;26.80;23.92;;;;;;;4.09;85.43;99712.41;5070705;28;20021;-62
2023/12/05 03:00:41;;;;;;;28.73;25.25;;;;;;;4.08;85.04;99710.72;5077908;28;20078;-64
2023/12/05 03:03:07;;;;;;;27.55;24.23;;;;;;;4.08;85.53;99710.72;5082427;28;20028;-65
2023/12/05 03:05:32;;;;;;;26.50;23.67;;;;;;;4.10;85.15;99700.34;5090683;28;20035;-65
2023/12/05 03:07:57;;;;;;;27.13;24.13;;;;;;;4.11;85.75;99702.03;5082824;28;20479;-65
2023/12/05 03:10:23;;;;;;;27.85;24.88;;;;;;;4.12;85.38;99700.09;5090584;28;20065;-65
2023/12/05 03:12:48;;;;;;;27.80;24.85;;;;;;;4.11;85.25;99693.78;5081364;28;20025;-64
2023/12/05 03:15:13;;;;;;;27.17;24.30;;;;;;;4.13;85.37;99694.38;5078607;28;20063;-62
2023/12/05 03:17:39;;;;;;;26.50;23.20;;;;;;;4.14;85.69;99697.97;5081302;28;20028;-62
2023/12/05 03:20:05;;;;;;;27.48;24.58;;;;;;;4.15;85.42;99700.47;5090149;28;20024;-62
2023/12/05 03:22:30;;;;;;;28.13;24.52;;;;;;;4.16;85.43;99698.53;5073191;28;20488;-62
2023/12/05 03:24:56;;;;;;;27.58;24.38;;;;;;;4.14;85.81;99692.47;5071054;28;20127;-65
2023/12/05 03:27:21;;;;;;;29.02;25.98;;;;;;;4.16;85.73;99690.31;5076967;28;20024;-64
2023/12/05 03:29:47;;;;;;;29.17;25.63;;;;;;;4.16;85.60;99691.13;5081442;28;20399;-65
2023/12/05 03:32:15;;;;;;;28.33;25.33;;;;;;;4.18;85.58;99700.00;5076319;28;20076;-62
2023/12/05 03:34:43;;;;;;;28.38;25.40;;;;;;;4.18;85.59;99701.91;5075157;28;20040;-62
2023/12/05 03:37:08;;;;;;;29.88;26.70;;;;;;;4.18;85.52;99701.91;5089496;28;20119;-63
2023/12/05 03:39:34;;;;;;;30.17;26.65;;;;;;;4.18;85.54;99705.47;5073255;28;20494;-62
2023/12/05 03:41:59;;;;;;;29.60;26.40;;;;;;;4.17;85.54;99705.72;5070674;28;20038;-63
2023/12/05 03:44:24;;;;;;;28.92;25.40;;;;;;;4.18;85.68;99704.66;5080912;28;20039;-63
2023/12/05 03:46:50;;;;;;;30.05;26.70;;;;;;;4.21;85.34;99704.19;5072933;28;20043;-64
2023/12/05 03:49:15;;;;;;;30.45;25.75;;;;;;;4.21;85.63;99706.94;5082310;28;20830;-64
2023/12/05 03:51:40;;;;;;;29.80;25.95;;;;;;;4.22;85.79;99708.59;5083189;28;20415;-63
2023/12/05 03:54:07;;;;;;;29.58;26.38;;;;;;;4.24;85.48;99713.84;5090505;28;20043;-64
2023/12/05 03:56:32;;;;;;;29.30;26.23;;;;;;;4.24;85.56;99711.91;5083366;28;20094;-64
2023/12/05 03:59:00;;;;;;;32.05;26.35;;;;;;;4.23;85.57;99718.50;5076308;28;20747;-64
2023/12/05 04:01:25;;;;;;;29.25;25.90;;;;;;;4.24;85.94;99719.31;5078466;28;20031;-63
2023/12/05 04:03:53;;;;;;;28.77;25.70;;;;;;;4.24;85.72;99717.41;5083748;28;20032;-63
2023/12/05 04:06:22;;;;;;;30.15;26.58;;;;;;;4.26;85.99;99722.69;5083059;28;20032;-63
2023/12/05 04:08:51;;;;;;;30.63;27.20;;;;;;;4.27;85.56;99724.34;5088914;28;20055;-63
2023/12/05 04:11:16;;;;;;;29.73;26.52;;;;;;;4.28;85.42;99731.50;5079103;28;20028;-63
2023/12/05 04:13:42;;;;;;;29.73;26.48;;;;;;;4.29;85.36;99733.19;5077102;28;20094;-63
2023/12/05 04:16:07;;;;;;;31.33;27.92;;;;;;;4.30;85.90;99732.94;5070905;28;20380;-63
2023/12/05 04:18:33;;;;;;;31.45;28.10;;;;;;;4.31;85.62;99729.13;5070619;28;20059;-64
2023/12/05 04:20:58;;;;;;;31.45;27.60;;;;;;;4.31;85.93;99737.34;5070390;28;20824;-64
2023/12/05 04:23:23;;;;;;;30.65;27.20;;;;;;;4.33;85.72;99731.66;5074535;28;20078;-64
2023/12/05 04:25:49;;;;;;;32.00;28.60;;;;;;;4.33;85.72;99742.63;5081140;28;20028;-64
2023/12/05 04:28:14;;;;;;;31.10;27.83;;;;;;;4.32;85.43;99739.06;5075928;28;20386;-63
2023/12/05 04:30:39;;;;;;;31.98;28.08;;;;;;;4.32;85.75;99735.44;5085096;28;20024;-64
2023/12/05 04:33:05;;;;;;;32.00;28.50;;;;;;;4.33;85.66;99745.38;5085023;28;20480;-63
2023/12/05 04:35:31;;;;;;;31.80;27.90;;;;;;;4.34;85.28;99744.28;5094255;28;20073;-64
2023/12/05 04:37:56;;;;;;;32.50;28.63;;;;;;;4.34;85.88;99747.03;5087025;28;20031;-64
2023/12/05 04:40:22;;;;;;;32.95;29.42;;;;;;;4.35;85.87;99745.97;5094339;28;20056;-64
2023/12/05 04:42:53;;;;;;;32.83;29.20;;;;;;;4.36;86.04;99743.00;5085096;28;20471;-65
2023/12/05 04:45:18;;;;;;;32.33;28.77;;;;;;;4.35;85.83;99752.28;5086737;28;20514;-64
2023/12/05 04:47:44;;;;;;;30.10;26.80;;;;;;;4.36;85.68;99762.22;5079950;28;20056;-64
2023/12/05 04:50:10;;;;;;;31.60;27.88;;;;;;;4.36;85.76;99756.72;5072677;28;20107;-64
2023/12/05 04:52:35;;;;;;;32.83;29.10;;;;;;;4.39;85.85;99752.66;5083437;28;20194;-65
2023/12/05 04:55:01;;;;;;;33.00;28.33;;;;;;;4.39;86.10;99755.41;5092324;28;20028;-64
2023/12/05 04:57:27;;;;;;;32.80;28.83;;;;;;;4.41;86.30;99764.25;5093061;28;20140;-64
2023/12/05 04:59:52;;;;;;;31.20;27.67;;;;;;;4.40;85.89;99771.66;5088750;28;20472;-63
2023/12/05 05:02:17;;;;;;;32.67;29.23;;;;;;;4.42;86.26;99777.72;5089238;28;20127;-64
2023/12/05 05:04:42;;;;;;;33.28;28.27;;;;;;;4.41;85.91;99764.25;5075871;28;20068;-65
2023/12/05 05:07:11;;;;;;;31.08;27.67;;;;;;;4.42;86.13;99768.66;5079117;28;20024;-64
2023/12/05 05:09:39;;;;;;;32.67;28.27;;;;;;;4.43;85.98;99767.56;5082251;28;20028;-65
2023/12/05 05:12:08;;;;;;;33.65;28.67;;;;;;;4.44;86.25;99774.72;5076828;28;20028;-64
2023/12/05 05:14:34;;;;;;;34.30;29.42;;;;;;;4.45;86.18;99767.34;5084590;28;20028;-64
2023/12/05 05:17:03;;;;;;;35.42;30.70;;;;;;;4.45;86.01;99776.44;5079073;28;20043;-64
2023/12/05 05:19:31;;;;;;;33.25;29.00;;;;;;;4.47;85.94;99776.19;5076064;28;20024;-64
2023/12/05 05:21:57;;;;;;;33.10;29.08;;;;;;;4.46;86.03;99778.09;5086271;28;20028;-64
2023/12/05 05:24:22;;;;;;;34.00;29.60;;;;;;;4.50;86.25;99779.28;5084087;28;20032;-64
2023/12/05 05:26:47;;;;;;;31.95;28.42;;;;;;;4.50;86.33;99778.44;5072325;28;20036;-65
2023/12/05 05:29:13;;;;;;;32.95;28.92;;;;;;;4.49;85.97;99783.13;5079796;28;20518;-64
2023/12/05 05:31:38;;;;;;;33.70;28.10;;;;;;;4.49;86.38;99782.28;5077254;28;20047;-65
2023/12/05 05:34:03;;;;;;;30.45;27.20;;;;;;;4.51;86.09;99782.88;5076337;28;20071;-65
2023/12/05 05:36:29;;;;;;;32.03;28.52;;;;;;;4.52;86.44;99782.66;5071891;28;20024;-65
2023/12/05 05:38:54;;;;;;;31.98;28.15;;;;;;;4.53;85.98;99778.81;5091313;28;20145;-64
2023/12/05 05:41:19;;;;;;;32.92;27.88;;;;;;;4.53;86.39;99784.31;5088739;28;20395;-64
2023/12/05 05:43:47;;;;;;;32.92;28.55;;;;;;;4.54;86.27;99785.13;5090209;28;20113;-65
2023/12/05 05:46:13;;;;;;;34.38;28.80;;;;;;;4.53;86.32;99781.56;5091058;28;20149;-65
2023/12/05 05:48:38;;;;;;;33.00;28.38;;;;;;;4.54;86.32;99793.38;5088797;28;20131;-65
2023/12/05 05:51:06;;;;;;;32.95;28.30;;;;;;;4.53;86.48;99795.31;5092819;28;20039;-65
2023/12/05 05:53:32;;;;;;;31.50;28.08;;;;;;;4.55;86.45;99789.56;5091799;28;20028;-66
2023/12/05 05:56:00;;;;;;;34.10;29.45;;;;;;;4.54;86.52;99785.97;5089244;28;20020;-63
2023/12/05 05:58:27;;;;;;;33.92;29.00;;;;;;;4.55;86.11;99787.63;5083010;28;20458;-63
2023/12/05 06:00:52;;;;;;;35.10;29.27;;;;;;;4.57;86.50;99798.41;5085607;28;20476;-63
2023/12/05 06:03:18;;;;;;;32.97;29.35;;;;;;;4.57;85.98;99791.00;5086289;28;20074;-64
2023/12/05 06:05:43;;;;;;;32.65;28.52;;;;;;;4.58;86.21;99789.91;5091092;28;20062;-63
2023/12/05 06:08:08;;;;;;;31.88;27.27;;;;;;;4.59;86.45;99788.81;5086089;28;20384;-64
2023/12/05 06:10:35;;;;;;;33.22;28.60;;;;;;;4.59;86.58;99791.56;5074458;28;20033;-64
2023/12/05 06:13:00;;;;;;;33.30;27.52;;;;;;;4.59;86.86;99799.81;5089032;28;20393;-64
2023/12/05 06:15:26;;;;;;;32.08;27.50;;;;;;;4.63;86.51;99794.69;5080691;28;20085;-64
2023/12/05 06:17:51;;;;;;;33.85;28.27;;;;;;;4.63;86.29;99795.50;5081553;28;20013;-64
2023/12/05 06:20:17;;;;;;;31.02;27.48;;;;;;;4.64;86.50;99796.38;5080377;28;20029;-64
2023/12/05 06:22:42;;;;;;;30.60;27.23;;;;;;;4.63;86.52;99803.75;5081062;28;20055;-63
2023/12/05 06:25:08;;;;;;;33.63;27.48;;;;;;;4.63;86.38;99803.75;5081402;28;20036;-64
2023/12/05 06:27:33;;;;;;;31.63;27.38;;;;;;;4.64;86.68;99812.88;5079108;28;20079;-63
2023/12/05 06:29:58;;;;;;;31.05;27.05;;;;;;;4.65;86.69;99811.78;5091633;28;20063;-65
2023/12/05 06:32:23;;;;;;;31.10;26.73;;;;;;;4.64;86.42;99810.94;5082278;28;20048;-64
2023/12/05 06:34:51;;;;;;;31.60;27.70;;;;;;;4.64;86.52;99821.94;5078184;28;20028;-64
2023/12/05 06:37:17;;;;;;;30.70;27.00;;;;;;;4.65;86.52;99814.53;5078029;28;20024;-64
2023/12/05 06:39:42;;;;;;;33.78;28.73;;;;;;;4.67;86.86;99831.59;5086009;28;20506;-64
2023/12/05 06:42:08;;;;;;;33.10;27.83;;;;;;;4.66;86.91;99827.19;5088253;28;20142;-64
2023/12/05 06:44:33;;;;;;;34.35;28.90;;;;;;;4.65;86.88;99822.78;5089058;28;20058;-64
2023/12/05 06:46:58;;;;;;;35.10;29.52;;;;;;;4.67;86.74;99834.34;5091769;28;20036;-64
2023/12/05 06:49:24;;;;;;;37.05;30.35;;;;;;;4.70;86.50;99831.13;5078974;28;20028;-64
2023/12/05 06:51:56;;;;;;;36.53;31.00;;;;;;;4.66;86.57;99833.53;5070732;28;20112;-64
2023/12/05 06:54:22;;;;;;;36.05;29.70;;;;;;;4.68;86.81;99836.06;5075084;28;20032;-65
2023/12/05 06:56:47;;;;;;;35.88;30.17;;;;;;;4.68;87.11;99841.53;5071569;28;20036;-64
2023/12/05 06:59:14;;;;;;;35.20;29.83;;;;;;;4.67;86.96;99846.19;5071128;28;20036;-65
2023/12/05 07:01:39;;;;;;;35.13;29.23;;;;;;;4.68;86.96;99845.13;5073446;28;20125;-64
2023/12/05 07:04:05;;;;;;;33.58;27.90;;;;;;;4.69;86.83;99848.72;5088915;28;20142;-65
2023/12/05 07:06:31;;;;;;;35.72;28.83;;;;;;;4.72;86.76;99852.91;5084067;28;20475;-65
2023/12/05 07:08:59;;;;;;;35.90;28.13;;;;;;;4.72;86.84;99861.16;5074610;28;20024;-64
2023/12/05 07:11:25;;;;;;;35.80;29.08;;;;;;;4.73;87.46;99860.91;5080378;28;20386;-64
2023/12/05 07:13:50;;;;;;;36.80;28.42;;;;;;;4.77;87.07;99864.00;5077080;28;20033;-64
2023/12/05 07:16:16;;;;;;;33.15;27.42;;;;;;;4.77;86.83;99867.59;5077334;28;20398;-65
2023/12/05 07:18:41;;;;;;;32.72;27.00;;;;;;;4.77;86.91;99870.34;5080271;28;20469;-65
2023/12/05 07:21:10;;;;;;;34.88;28.35;;;;;;;4.77;86.56;99870.34;5083002;28;20032;-67
2023/12/05 07:23:36;;;;;;;34.80;27.45;;;;;;;4.78;86.55;99873.91;5088393;28;20028;-67
2023/12/05 07:26:04;;;;;;;34.55;27.33;;;;;;;4.77;86.44;99875.00;5079584;28;20024;-65
2023/12/05 07:28:29;;;;;;;32.15;26.50;;;;;;;4.75;86.35;99880.72;5083898;28;20032;-66
2023/12/05 07:30:55;;;;;;;34.05;27.50;;;;;;;4.77;86.05;99880.50;5081324;28;20035;-66
2023/12/05 07:33:20;;;;;;;33.47;27.00;;;;;;;4.77;86.22;99888.75;5077463;28;20077;-67
2023/12/05 07:35:46;;;;;;;35.63;28.15;;;;;;;4.74;86.35;99892.81;5079945;28;20032;-67
2023/12/05 07:38:12;;;;;;;36.97;28.77;;;;;;;4.72;86.52;99894.97;5090143;28;20024;-65
2023/12/05 07:40:37;;;;;;;36.85;28.88;;;;;;;4.75;86.24;99896.38;5086378;28;20111;-68
2023/12/05 07:43:02;;;;;;;35.60;28.35;;;;;;;4.75;85.93;99901.88;5086209;28;20131;-69
2023/12/05 07:45:28;;;;;;;36.08;29.98;;;;;;;4.77;85.84;99906.06;5085108;28;20028;-69
2023/12/05 07:47:53;;;;;;;39.17;30.10;;;;;;;4.75;86.07;99910.13;5081695;28;20040;-69
2023/12/05 07:50:18;;;;;;;36.50;28.52;;;;;;;4.75;85.87;99918.38;5084997;28;20491;-71
2023/12/05 07:52:50;;;;;;;38.30;30.58;;;;;;;4.74;86.03;99927.72;5077994;28;20032;-69
2023/12/05 07:55:19;;;;;;;39.53;30.23;;;;;;;4.85;87.58;99933.22;5087325;28;20054;-69
2023/12/05 07:57:46;;;;;;;36.17;29.60;;;;;;;4.89;85.78;99936.31;5077769;28;20125;-65
2023/12/05 08:00:16;;;;;;;39.42;30.45;;;;;;;4.88;85.75;99932.75;5073597;28;20063;-66
2023/12/05 08:02:45;;;;;;;35.28;27.73;;;;;;;4.86;85.90;99934.88;5079610;28;20036;-69
2023/12/05 08:05:10;;;;;;;37.63;29.00;;;;;;;4.85;85.31;99944.22;5072472;28;20064;-69
2023/12/05 08:07:36;;;;;;;35.13;28.27;;;;;;;4.85;85.35;99955.22;5089903;28;20056;-69
2023/12/05 08:10:01;;;;;;;37.88;29.25;;;;;;;4.83;85.24;99953.75;5080310;28;20016;-69
2023/12/05 08:12:27;;;;;;;34.95;28.27;;;;;;;4.82;85.34;99957.59;5082315;28;20043;-68
2023/12/05 08:14:52;;;;;;;36.45;27.95;;;;;;;4.83;85.06;99959.25;5081080;28;20548;-61
2023/12/05 08:17:17;;;;;;;36.55;28.80;;;;;;;4.80;84.76;99965.25;5092799;28;20040;-65
2023/12/05 08:19:43;;;;;;;37.58;29.17;;;;;;;4.78;84.47;99972.88;5088905;28;20028;-66
2023/12/05 08:22:08;;;;;;;36.22;28.08;;;;;;;4.78;84.56;99964.66;5073870;28;20116;-64
2023/12/05 08:24:33;;;;;;;35.60;28.45;;;;;;;4.75;84.70;99968.69;5075787;28;20036;-66
2023/12/05 08:27:00;;;;;;;37.25;27.75;;;;;;;4.74;84.61;99964.28;5073681;28;20392;-66
2023/12/05 08:29:25;;;;;;;36.72;28.25;;;;;;;4.73;84.51;99970.03;5083517;28;20119;-67
2023/12/05 08:31:50;;;;;;;38.78;28.77;;;;;;;4.73;84.16;99981.03;5090285;28;20586;-66
2023/12/05 08:34:15;;;;;;;37.03;28.13;;;;;;;4.74;84.23;99982.69;5090438;28;20089;-66
2023/12/05 08:36:44;;;;;;;36.03;27.30;;;;;;;4.73;84.60;99987.34;5076686;28;20573;-66
2023/12/05 08:39:10;;;;;;;38.20;28.13;;;;;;;4.76;84.29;99988.81;5079057;28;20082;-67
2023/12/05 08:41:35;;;;;;;36.25;28.13;;;;;;;4.75;84.40;99998.94;5080534;28;20608;-66
2023/12/05 08:44:01;;;;;;;38.85;29.63;;;;;;;4.75;84.13;99990.69;5082191;28;20024;-68
2023/12/05 08:46:26;;;;;;;39.83;28.92;;;;;;;4.74;84.11;99993.69;5080259;28;20032;-65
2023/12/05 08:48:51;;;;;;;40.58;29.02;;;;;;;4.72;83.90;99996.69;5093342;28;20118;-77
2023/12/05 08:51:18;;;;;;;37.80;28.75;;;;;;;4.69;84.30;99997.16;5088771;28;20027;-61
2023/12/05 08:53:43;;;;;;;39.33;30.17;;;;;;;4.74;84.12;99994.50;5089518;28;20039;-66
2023/12/05 08:56:09;;;;;;;30.00;21.75;;;;;;;5.13;89.23;99998.50;5093156;28;20093;-65
2023/12/05 08:58:34;;;;;;;36.65;27.58;;;;;;;5.01;85.40;100000.41;5088209;28;20024;-65
2023/12/05 09:00:59;;;;;;;37.38;29.85;;;;;;;5.08;84.18;100005.81;5085603;28;20032;-65
2023/12/05 09:03:25;;;;;;;39.67;28.83;;;;;;;5.07;83.65;99999.47;5091934;28;20032;-65
2023/12/05 09:05:50;;;;;;;37.78;27.73;;;;;;;5.02;83.20;100006.75;5093237;28;20028;-65
2023/12/05 09:08:16;;;;;;;35.97;28.73;;;;;;;4.99;83.54;100013.59;5092900;28;20031;-65
2023/12/05 09:10:41;;;;;;;38.65;27.30;;;;;;;4.93;83.30;100009.84;5076564;28;20043;-65
2023/12/05 09:13:06;;;;;;;38.67;28.33;;;;;;;4.88;83.65;100012.47;5073012;28;20028;-66
2023/12/05 09:15:34;;;;;;;35.30;27.42;;;;;;;4.86;83.54;100017.38;5073080;28;20021;-66
2023/12/05 09:17:59;;;;;;;39.35;28.50;;;;;;;4.85;83.19;100017.63;5088810;28;20024;-66
2023/12/05 09:20:25;;;;;;;36.92;27.23;;;;;;;4.84;82.99;100026.94;5075912;28;20034;-66
2023/12/05 09:22:51;;;;;;;37.63;28.02;;;;;;;4.82;83.34;100034.56;5074417;28;20039;-67
2023/12/05 09:25:17;;;;;;;38.78;28.60;;;;;;;4.81;83.40;100032.91;5081515;28;20031;-67
2023/12/05 09:27:42;;;;;;;40.22;28.25;;;;;;;4.82;83.80;100034.56;5091374;28;20027;-68
2023/12/05 09:30:09;;;;;;;37.63;27.88;;;;;;;4.82;83.79;100035.41;5086786;28;20487;-67
2023/12/05 09:32:34;;;;;;;37.20;28.73;;;;;;;4.81;83.61;100044.75;5076579;28;20126;-67
2023/12/05 09:34:59;;;;;;;37.28;28.85;;;;;;;4.79;83.34;100046.88;5085589;28;20036;-67
2023/12/05 09:37:31;;;;;;;39.53;28.50;;;;;;;4.78;83.54;100064.44;5089549;28;20024;-68
2023/12/05 09:39:57;;;;;;;36.95;26.90;;;;;;;4.81;83.70;100060.41;5091152;28;20060;-67
2023/12/05 09:42:25;;;;;;;36.60;26.83;;;;;;;4.80;83.54;100069.72;5092292;28;20082;-67
2023/12/05 09:44:52;;;;;;;37.60;28.85;;;;;;;4.79;83.74;100063.38;5077779;28;20318;-66
2023/12/05 09:47:20;;;;;;;39.78;27.67;;;;;;;4.79;83.35;100068.03;5082843;28;20028;-67
2023/12/05 09:49:46;;;;;;;38.65;27.55;;;;;;;4.78;83.72;100071.88;5092444;28;20035;-65
2023/12/05 09:52:11;;;;;;;35.38;26.77;;;;;;;4.78;83.39;100067.19;5077531;28;20067;-66
2023/12/05 09:54:37;;;;;;;37.50;27.73;;;;;;;4.77;83.34;100067.44;5081367;28;20035;-68
2023/12/05 09:57:04;;;;;;;38.95;27.50;;;;;;;4.76;83.56;100071.28;5082850;28;20047;-66
2023/12/05 09:59:35;;;;;;;37.20;26.55;;;;;;;4.78;83.71;100072.69;5092024;28;20028;-66
2023/12/05 10:02:02;;;;;;;37.42;26.73;;;;;;;4.77;83.97;100070.19;5091428;28;20044;-68
2023/12/05 10:04:29;;;;;;;41.85;27.50;;;;;;;4.79;83.64;100079.88;5080016;28;20079;-66
2023/12/05 10:06:58;;;;;;;38.30;27.55;;;;;;;4.80;83.81;100087.06;5089995;28;20849;-66
2023/12/05 10:09:26;;;;;;;38.90;27.42;;;;;;;4.81;83.59;100083.22;5091432;28;20403;-66
2023/12/05 10:11:52;;;;;;;42.10;28.95;;;;;;;4.81;83.84;100091.47;5091678;28;20052;-66
2023/12/05 10:14:17;;;;;;;42.30;30.02;;;;;;;4.80;84.08;100088.97;5088011;28;20031;-66
2023/12/05 10:16:44;;;;;;;38.22;27.05;;;;;;;4.84;83.83;100103.94;5081664;28;20111;-67
2023/12/05 10:19:10;;;;;;;39.53;28.02;;;;;;;4.80;83.94;100099.97;5078057;28;20472;-67
2023/12/05 10:21:36;;;;;;;38.50;27.50;;;;;;;4.82;83.79;100103.31;5071901;28;20039;-67
2023/12/05 10:24:05;;;;;;;39.58;28.35;;;;;;;4.82;83.75;100108.81;5071370;28;20468;-66
2023/12/05 10:26:30;;;;;;;39.72;28.20;;;;;;;4.82;83.96;100108.81;5072223;28;20036;-66
2023/12/05 10:28:56;;;;;;;38.90;26.83;;;;;;;4.81;83.85;100107.97;5090162;28;20032;-66
2023/12/05 10:31:22;;;;;;;39.08;27.33;;;;;;;4.83;83.76;100107.72;5086460;28;20016;-65
2023/12/05 10:33:49;;;;;;;39.13;27.55;;;;;;;4.81;83.90;100109.91;5084793;28;20047;-65
2023/12/05 10:36:15;;;;;;;40.70;28.70;;;;;;;4.83;83.82;100114.06;5080081;28;20032;-66
2023/12/05 10:38:44;;;;;;;43.28;28.38;;;;;;;4.85;84.25;100113.84;5086820;28;20399;-65
2023/12/05 10:41:09;;;;;;;39.28;28.23;;;;;;;4.86;83.96;100113.59;5075202;28;20032;-67
2023/12/05 10:43:35;;;;;;;42.03;28.77;;;;;;;4.86;83.85;100123.78;5088161;28;20058;-59
2023/12/05 10:46:03;;;;;;;35.45;26.63;;;;;;;4.85;83.75;100127.59;5078229;28;20166;-64
2023/12/05 10:48:30;;;;;;;36.05;27.15;;;;;;;4.84;83.46;100123.19;5076271;28;20099;-66
2023/12/05 10:50:56;;;;;;;34.42;26.55;;;;;;;4.84;83.84;100126.75;5075815;28;20036;-65
2023/12/05 10:53:22;;;;;;;31.77;23.80;;;;;;;4.86;83.55;100132.03;5090317;28;20085;-65
2023/12/05 10:55:48;;;;;;;34.35;25.23;;;;;;;4.86;83.81;100132.03;5088808;28;20414;-66
2023/12/05 10:58:16;;;;;;;30.58;22.42;;;;;;;4.88;83.31;100135.38;5077581;28;20032;-65
2023/12/05 11:00:42;;;;;;;29.13;22.30;;;;;;;4.89;83.33;100134.31;5087098;28;20027;-65
2023/12/05 11:03:07;;;;;;;26.05;21.38;;;;;;;4.89;83.26;100145.31;5080698;28;20081;-65
2023/12/05 11:05:34;;;;;;;26.65;20.30;;;;;;;4.90;83.30;100141.47;5086523;28;20101;-65
2023/12/05 11:08:04;;;;;;;25.40;20.23;;;;;;;4.85;82.90;100133.94;5083336;28;20032;-66
2023/12/05 11:10:30;;;;;;;21.75;18.17;;;;;;;4.88;83.39;100154.63;5067581;28;20036;-65
2023/12/05 11:12:58;;;;;;;24.85;18.65;;;;;;;4.85;83.31;100144.94;5078949;28;20039;-66
2023/12/05 11:15:29;;;;;;;22.02;16.90;;;;;;;4.88;83.27;100147.22;5086035;28;20027;-66
2023/12/05 11:18:17;;;;;;;20.75;16.55;;;;;;;4.91;83.51;100155.00;5083652;28;20024;-66
2023/12/05 11:20:53;;;;;;;19.90;15.50;;;;;;;4.88;83.50;100149.97;5083444;28;20020;-66